Bluffs, Illinois
Current Conditions -  °F | °C
As of 12:55 AM on Thursday 23 Oct 2014 (Local Time) from KPPQ Reporting Station
Clear Clear  
Wind Chill:   Ceiling: Unl
Heat Index:   Visibility: 10mi
Dew Point:   Wind: 3mph
Humidity: 87%   Direction: 140°SE
Pressure: 30.22"   Gusts: NA
Location:  39.75°N, 90.54°W
Report Text: KPPQ 230555Z AUTO 14003KT 10SM CLR 07/05 A3022 RMK AO2 T00660046 10127 20051 401780031
Loading
Personal Weather Stations






























Interactive Weather Map
Tropical Storm Tracking
New forecast layout! Learn more

10-Day Weather Forecast

Advertisements
Track Severe Weather on mobile